createdAt,value
2016-04-06T00:00:56.648Z,30.12
2016-04-06T00:01:56.666Z,30.22
2016-04-06T00:02:56.669Z,30.12
2016-04-06T00:03:56.671Z,30.12
2016-04-06T00:04:56.690Z,30.22
2016-04-06T00:05:56.707Z,29.93
2016-04-06T00:06:56.695Z,30.03
2016-04-06T00:07:56.698Z,30.22
2016-04-06T00:08:56.700Z,30.12
2016-04-06T00:09:56.703Z,30.12
2016-04-06T00:10:56.720Z,30.03
2016-04-06T00:11:56.723Z,30.22
2016-04-06T00:12:56.726Z,30.22
2016-04-06T00:13:56.728Z,30.22
2016-04-06T00:14:56.731Z,30.03
2016-04-06T00:15:56.750Z,30.03
2016-04-06T00:16:56.752Z,30.03
2016-04-06T00:17:56.755Z,30.03
2016-04-06T00:18:56.805Z,29.93
2016-04-06T00:19:59.120Z,30.22
2016-04-06T00:20:56.779Z,30.22
2016-04-06T00:21:56.782Z,30.12
2016-04-06T00:22:56.785Z,29.93
2016-04-06T00:23:56.788Z,30.12
2016-04-06T00:24:56.821Z,30.12
2016-04-06T00:25:56.808Z,29.64
2016-04-06T00:26:56.810Z,30.22
2016-04-06T00:27:56.829Z,30.22
2016-04-06T00:28:56.816Z,30.22
2016-04-06T00:29:56.819Z,30.22
2016-04-06T00:30:56.838Z,30.03
2016-04-06T00:31:56.841Z,29.93
2016-04-06T00:32:56.843Z,29.83
2016-04-06T00:33:56.987Z,29.93
2016-04-06T00:34:56.864Z,29.74
2016-04-06T00:35:56.867Z,29.83
2016-04-06T00:36:56.884Z,29.93
2016-04-06T00:37:56.872Z,29.74
2016-04-06T00:38:56.875Z,29.83
2016-04-06T00:39:56.893Z,30.12
2016-04-06T00:40:56.896Z,30.03
2016-04-06T00:41:56.898Z,30.12
2016-04-06T00:42:56.917Z,30.03
2016-04-06T00:43:56.966Z,29.74
2016-04-06T00:44:56.922Z,30.03
2016-04-06T00:45:56.925Z,29.93
2016-04-06T00:46:56.927Z,30.12
2016-04-06T00:47:56.931Z,29.93
2016-04-06T00:48:56.948Z,30.51
2016-04-06T00:49:56.951Z,29.74
2016-04-06T00:50:56.953Z,29.93
2016-04-06T00:51:56.956Z,29.74
2016-04-06T00:52:56.959Z,30.32
2016-04-06T00:53:56.977Z,30.03
2016-04-06T00:54:56.980Z,29.93
2016-04-06T00:55:56.982Z,30.03
2016-04-06T00:56:57.017Z,29.93
2016-04-06T00:57:56.988Z,30.41
2016-04-06T00:58:57.007Z,30.41
2016-04-06T00:59:57.010Z,30.12
2016-04-06T01:00:57.012Z,30.12
2016-04-06T01:01:57.030Z,29.83
2016-04-06T01:02:57.033Z,29.64
2016-04-06T01:03:57.160Z,29.74
2016-04-06T01:04:57.038Z,30.03
2016-04-06T01:05:57.040Z,30.41
2016-04-06T01:06:57.059Z,29.74
2016-04-06T01:07:57.046Z,29.64
2016-04-06T01:08:57.065Z,29.64
2016-04-06T01:09:57.084Z,30.12
2016-04-06T01:10:57.070Z,29.63
2016-04-06T01:11:57.073Z,30.8
2016-04-06T01:12:57.091Z,29.83
2016-04-06T01:13:57.094Z,29.93
2016-04-06T01:14:57.112Z,29.93
2016-04-06T01:15:57.115Z,30.12
2016-04-06T01:16:57.118Z,30.22
2016-04-06T01:17:57.120Z,30.12
2016-04-06T01:18:57.248Z,30.03
2016-04-06T01:19:57.125Z,30.7
2016-04-06T01:20:57.128Z,30.22
2016-04-06T01:21:57.147Z,30.11
2016-04-06T01:22:57.149Z,29.83
2016-04-06T01:23:57.152Z,29.93
2016-04-06T01:24:57.185Z,29.93
2016-04-06T01:25:57.158Z,30.22
2016-04-06T01:26:57.175Z,29.74
2016-04-06T01:27:57.178Z,29.55
2016-04-06T01:28:57.181Z,30.12
2016-04-06T01:29:57.183Z,29.55
2016-04-06T01:30:57.202Z,30.12
2016-04-06T01:31:57.188Z,29.74
2016-04-06T01:32:57.207Z,29.45
2016-04-06T01:33:57.131Z,29.25
2016-04-06T01:34:57.228Z,29.45
2016-04-06T01:35:57.246Z,29.64
2016-04-06T01:36:57.234Z,29.45
2016-04-06T01:37:57.237Z,29.55
2016-04-06T01:38:57.240Z,29.35
2016-04-06T01:39:57.242Z,29.25
2016-04-06T01:40:57.260Z,29.16
2016-04-06T01:41:57.262Z,29.25
2016-04-06T01:42:57.265Z,29.45
2016-04-06T01:43:57.268Z,29.35
2016-04-06T01:44:57.287Z,29.35
2016-04-06T01:45:57.290Z,29.16
2016-04-06T01:46:57.292Z,29.35
2016-04-06T01:47:57.295Z,29.55
2016-04-06T01:48:57.297Z,29.35
2016-04-06T01:49:57.331Z,29.55
2016-04-06T01:50:57.302Z,29.45
2016-04-06T01:51:57.321Z,29.55
2016-04-06T01:52:57.339Z,29.45
2016-04-06T01:53:57.326Z,29.35
2016-04-06T01:54:57.330Z,29.45
2016-04-06T01:55:57.347Z,29.45
2016-04-06T01:56:57.350Z,29.45
2016-04-06T01:57:57.353Z,29.55
2016-04-06T01:58:57.355Z,29.55
2016-04-06T01:59:57.374Z,29.35
2016-04-06T02:00:57.376Z,29.64
2016-04-06T02:01:57.379Z,29.55
2016-04-06T02:02:57.381Z,29.45
2016-04-06T02:03:57.384Z,29.35
2016-04-06T02:04:57.402Z,29.35
2016-04-06T02:05:57.421Z,29.45
2016-04-06T02:06:57.424Z,29.35
2016-04-06T02:07:57.254Z,29.35
2016-04-06T02:08:57.421Z,29.34
2016-04-06T02:09:57.425Z,29.24
2016-04-06T02:10:57.427Z,29.55
2016-04-06T02:11:57.430Z,29.45
2016-04-06T02:12:57.448Z,29.06
2016-04-06T02:13:57.451Z,28.97
2016-04-06T02:14:57.454Z,28.97
2016-04-06T02:15:57.472Z,29.55
2016-04-06T02:16:57.475Z,29.14
2016-04-06T02:17:57.477Z,29.43
2016-04-06T02:18:57.480Z,29.45
2016-04-06T02:19:57.482Z,28.97
2016-04-06T02:20:57.485Z,29.06
2016-04-06T02:21:57.504Z,29.35
2016-04-06T02:22:57.507Z,29.43
2016-04-06T02:23:57.510Z,29.43
2016-04-06T02:24:57.528Z,29.05
2016-04-06T02:25:57.515Z,29.34
2016-04-06T02:26:57.533Z,28.85
2016-04-06T02:27:57.536Z,28.95
2016-04-06T02:28:57.538Z,28.97
2016-04-06T02:29:57.556Z,28.87
2016-04-06T02:30:57.544Z,29.05
2016-04-06T02:31:57.562Z,29.05
2016-04-06T02:32:57.565Z,28.97
2016-04-06T02:33:57.584Z,29.06
2016-04-06T02:34:57.570Z,29.06
2016-04-06T02:35:57.573Z,29.16
2016-04-06T02:36:57.591Z,29.06
2016-04-06T02:37:57.594Z,29.16
2016-04-06T02:38:57.597Z,29.16
2016-04-06T02:39:57.615Z,29.16
2016-04-06T02:40:57.602Z,29.16
2016-04-06T02:41:57.621Z,29.16
2016-04-06T02:42:57.623Z,29.16
2016-04-06T02:43:57.626Z,29.25
2016-04-06T02:44:57.629Z,28.87
2016-04-06T02:45:57.647Z,29.06
2016-04-06T02:46:57.649Z,29.25
2016-04-06T02:47:57.652Z,29.16
2016-04-06T02:48:57.654Z,29.16
2016-04-06T02:49:57.673Z,29.16
2016-04-06T02:50:57.660Z,28.97
2016-04-06T02:51:57.679Z,28.87
2016-04-06T02:52:57.682Z,28.87
2016-04-06T02:53:57.684Z,28.87
2016-04-06T02:54:57.687Z,28.97
2016-04-06T02:55:57.704Z,28.77
2016-04-06T02:56:57.707Z,28.87
2016-04-06T02:57:57.710Z,28.87
2016-04-06T02:58:57.728Z,28.77
2016-04-06T02:59:57.715Z,28.77
2016-04-06T03:00:57.718Z,28.58
2016-04-06T03:01:57.737Z,28.97
2016-04-06T03:02:57.740Z,28.77
2016-04-06T03:03:57.742Z,28.77
2016-04-06T03:04:57.745Z,28.67
2016-04-06T03:05:57.764Z,28.87
2016-04-06T03:06:57.766Z,28.97
2016-04-06T03:07:57.769Z,28.87
2016-04-06T03:08:57.786Z,28.77
2016-04-06T03:09:57.789Z,28.87
2016-04-06T03:10:57.791Z,28.87
2016-04-06T03:11:57.794Z,28.77
2016-04-06T03:12:57.797Z,28.67
2016-04-06T03:13:57.800Z,28.67
2016-04-06T03:14:57.803Z,28.77
2016-04-06T03:15:57.821Z,28.58
2016-04-06T03:16:57.840Z,28.58
2016-04-06T03:17:57.826Z,28.67
2016-04-06T03:18:57.845Z,28.87
2016-04-06T03:19:57.848Z,28.77
2016-04-06T03:20:57.851Z,28.58
2016-04-06T03:21:57.854Z,28.97
2016-04-06T03:22:57.871Z,28.87
2016-04-06T03:23:57.874Z,28.56
2016-04-06T03:24:57.861Z,28.87
2016-04-06T03:25:57.879Z,28.48
2016-04-06T03:26:57.881Z,28.58
2016-04-06T03:27:57.884Z,28.48
2016-04-06T03:28:57.887Z,28.58
2016-04-06T03:29:57.889Z,28.58
2016-04-06T03:30:57.924Z,28.58
2016-04-06T03:31:57.911Z,28.58
2016-04-06T03:32:57.929Z,28.58
2016-04-06T03:33:57.917Z,28.48
2016-04-06T03:34:57.935Z,28.97
2016-04-06T03:35:57.937Z,28.85
2016-04-06T03:36:57.940Z,28.56
2016-04-06T03:37:57.942Z,28.56
2016-04-06T03:38:57.961Z,28.56
2016-04-06T03:39:57.963Z,28.58
2016-04-06T03:40:57.966Z,28.66
2016-04-06T03:41:57.969Z,28.87
2016-04-06T03:42:57.972Z,28.48
2016-04-06T03:43:57.975Z,28.48
2016-04-06T03:44:57.836Z,28.76
2016-04-06T03:45:57.996Z,28.67
2016-04-06T03:46:57.998Z,28.97
2016-04-06T03:47:58.016Z,28.77
2016-04-06T03:48:58.019Z,28.67
2016-04-06T03:49:58.022Z,28.56
2016-04-06T03:50:58.024Z,28.58
2016-04-06T03:51:58.027Z,28.66
2016-04-06T03:52:58.046Z,28.37
2016-04-06T03:53:58.048Z,28.67
2016-04-06T03:54:58.051Z,28.58
2016-04-06T03:55:58.054Z,28.67
2016-04-06T03:56:58.056Z,28.39
2016-04-06T03:57:58.075Z,28.56
2016-04-06T03:58:58.061Z,28.56
2016-04-06T03:59:58.081Z,28.58
2016-04-06T04:00:58.083Z,28.39
2016-04-06T04:01:58.086Z,28.37
2016-04-06T04:02:58.089Z,28.39
2016-04-06T04:03:58.106Z,28.28
2016-04-06T04:04:58.109Z,28.39
2016-04-06T04:05:58.111Z,28.48
2016-04-06T04:06:58.161Z,28.37
2016-04-06T04:07:58.133Z,28.76
2016-04-06T04:08:58.120Z,28.76
2016-04-06T04:09:58.139Z,28.76
2016-04-06T04:10:58.141Z,28.66
2016-04-06T04:11:58.159Z,28.47
2016-04-06T04:12:58.146Z,28.37
2016-04-06T04:13:58.164Z,28.47
2016-04-06T04:14:58.167Z,28.47
2016-04-06T04:15:58.170Z,28.56
2016-04-06T04:16:58.172Z,28.37
2016-04-06T04:17:58.175Z,28.28
2016-04-06T04:18:58.194Z,28.37
2016-04-06T04:19:58.196Z,28.47
2016-04-06T04:20:58.199Z,27.8
2016-04-06T04:21:58.218Z,28.08
2016-04-06T04:22:58.204Z,28.37
2016-04-06T04:23:58.223Z,28.28
2016-04-06T04:24:58.226Z,28.28
2016-04-06T04:25:58.228Z,27.89
2016-04-06T04:26:58.231Z,27.89
2016-04-06T04:27:58.234Z,28.37
2016-04-06T04:28:58.236Z,28.08
2016-04-06T04:29:58.255Z,28.56
2016-04-06T04:30:58.257Z,28.56
2016-04-06T04:31:58.260Z,28.18
2016-04-06T04:32:58.278Z,27.89
2016-04-06T04:33:58.281Z,27.98
2016-04-06T04:34:58.299Z,28.47
2016-04-06T04:35:58.286Z,28.18
2016-04-06T04:36:58.289Z,28.08
2016-04-06T04:37:58.291Z,27.98
2016-04-06T04:38:58.310Z,28.08
2016-04-06T04:39:58.313Z,28.19
2016-04-06T04:40:58.316Z,28.18
2016-04-06T04:41:58.318Z,28.19
2016-04-06T04:42:58.321Z,27.98
2016-04-06T04:43:58.339Z,27.89
2016-04-06T04:44:58.341Z,28.18
2016-04-06T04:45:58.344Z,27.98
2016-04-06T04:46:58.347Z,28.08
2016-04-06T04:47:58.349Z,27.98
2016-04-06T04:48:58.384Z,28.08
2016-04-06T04:49:58.371Z,28.28
2016-04-06T04:50:58.388Z,28.08
2016-04-06T04:51:58.391Z,28.28
2016-04-06T04:52:58.379Z,28.08
2016-04-06T04:53:58.381Z,28.18
2016-04-06T04:54:58.400Z,27.98
2016-04-06T04:55:58.402Z,27.98
2016-04-06T04:56:58.421Z,28.08
2016-04-06T04:57:58.440Z,28.18
2016-04-06T04:58:58.426Z,28.08
2016-04-06T04:59:58.429Z,28.08
2016-04-06T05:00:58.432Z,28.37
2016-04-06T05:01:58.434Z,28.18
2016-04-06T05:02:58.453Z,28.18
2016-04-06T05:03:58.455Z,28.18
2016-04-06T05:04:58.458Z,27.98
2016-04-06T05:05:58.475Z,28.18
2016-04-06T05:06:58.464Z,28.08
2016-04-06T05:07:58.467Z,27.98
2016-04-06T05:08:58.484Z,27.98
2016-04-06T05:09:58.487Z,28.28
2016-04-06T05:10:58.490Z,28.37
2016-04-06T05:11:58.508Z,28.08
2016-04-06T05:12:58.495Z,28.18
2016-04-06T05:13:58.514Z,28.28
2016-04-06T05:14:58.516Z,28.08
2016-04-06T05:15:58.519Z,28.08
2016-04-06T05:16:58.537Z,27.98
2016-04-06T05:17:58.540Z,28.18
2016-04-06T05:18:58.527Z,28.28
2016-04-06T05:19:58.577Z,28.28
2016-04-06T05:20:58.548Z,28.18
2016-04-06T05:21:58.566Z,28.28
2016-04-06T05:22:58.554Z,28.08
2016-04-06T05:23:58.556Z,28.37
2016-04-06T05:24:58.574Z,28.28
2016-04-06T05:25:58.577Z,28.18
2016-04-06T05:26:58.579Z,28.08
2016-04-06T05:27:58.598Z,28.08
2016-04-06T05:28:58.596Z,28.18
2016-04-06T05:29:58.598Z,28.08
2016-04-06T05:30:58.601Z,28.08
2016-04-06T05:31:58.604Z,28.18
2016-04-06T05:32:58.623Z,28.18
2016-04-06T05:33:58.625Z,27.98
2016-04-06T05:34:58.628Z,28.08
2016-04-06T05:35:58.631Z,28.08
2016-04-06T05:36:58.634Z,27.98
2016-04-06T05:37:58.651Z,27.98
2016-04-06T05:38:58.653Z,28.08
2016-04-06T05:39:58.657Z,28.08
2016-04-06T05:40:58.659Z,28
2016-04-06T05:41:58.678Z,27.98
2016-04-06T05:42:58.665Z,28
2016-04-06T05:43:58.683Z,27.98
2016-04-06T05:44:58.686Z,27.98
2016-04-06T05:45:58.689Z,27.98
2016-04-06T05:46:58.706Z,28.18
2016-04-06T05:47:58.709Z,28.08
2016-04-06T05:48:58.711Z,28.08
2016-04-06T05:49:58.714Z,28.18
2016-04-06T05:50:58.717Z,28.08
2016-04-06T05:51:58.719Z,28.08
2016-04-06T05:52:58.738Z,27.98
2016-04-06T05:53:58.741Z,27.98
2016-04-06T05:54:58.744Z,28.08
2016-04-06T05:55:58.746Z,28.18
2016-04-06T05:56:58.765Z,27.8
2016-04-06T05:57:58.892Z,27.98
2016-04-06T05:58:58.771Z,27.98
2016-04-06T05:59:58.774Z,27.98
2016-04-06T06:00:58.775Z,27.98
2016-04-06T06:01:58.779Z,28.18
2016-04-06T06:02:58.781Z,28.18
2016-04-06T06:03:58.810Z,27.98
2016-04-06T06:04:59.061Z,28.18
2016-04-06T06:05:58.906Z,27.98
2016-04-06T06:06:58.970Z,27.98
2016-04-06T06:07:59.019Z,27.89
2016-04-06T06:08:59.059Z,27.89
2016-04-06T06:09:59.078Z,28.08
2016-04-06T06:10:59.097Z,28.08
2016-04-06T06:11:59.131Z,27.98
2016-04-06T06:12:59.151Z,27.7
2016-04-06T06:13:59.151Z,28.08
2016-04-06T06:14:59.175Z,27.4
2016-04-06T06:15:59.184Z,27.7
2016-04-06T06:16:59.207Z,27.89
2016-04-06T06:17:59.200Z,28.08
2016-04-06T06:18:59.223Z,28.18
2016-04-06T06:19:59.274Z,28.08
2016-04-06T06:20:59.232Z,28.18
2016-04-06T06:21:59.253Z,27.98
2016-04-06T06:22:59.258Z,27.98
2016-04-06T06:23:59.263Z,27.8
2016-04-06T06:24:59.282Z,28.18
2016-04-06T06:25:59.286Z,27.89
2016-04-06T06:26:59.289Z,27.98
2016-04-06T06:27:59.308Z,27.98
2016-04-06T06:28:59.281Z,27.6
2016-04-06T06:29:59.299Z,27.8
2016-04-06T06:30:59.302Z,27.8
2016-04-06T06:31:59.305Z,27.89
2016-04-06T06:32:59.324Z,27.7
2016-04-06T06:33:59.327Z,27.8
2016-04-06T06:34:59.376Z,28.08
2016-04-06T06:35:59.395Z,27.89
2016-04-06T06:36:59.351Z,27.98
2016-04-06T06:37:59.338Z,28.18
2016-04-06T06:38:59.356Z,27.98
2016-04-06T06:39:59.359Z,27.7
2016-04-06T06:40:59.362Z,27.7
2016-04-06T06:41:59.365Z,27.8
2016-04-06T06:42:59.367Z,27.89
2016-04-06T06:43:59.370Z,27.89
2016-04-06T06:44:59.388Z,27.6
2016-04-06T06:45:59.391Z,27.98
2016-04-06T06:46:59.409Z,27.89
2016-04-06T06:47:59.411Z,27.89
2016-04-06T06:48:59.414Z,27.6
2016-04-06T06:49:59.464Z,27.8
2016-04-06T06:50:59.420Z,27.22
2016-04-06T06:51:59.422Z,27.4
2016-04-06T06:52:59.441Z,27.8
2016-04-06T06:53:59.444Z,27.89
2016-04-06T06:54:59.430Z,27.89
2016-04-06T06:55:59.449Z,27.8
2016-04-06T06:56:59.452Z,27.7
2016-04-06T06:57:59.455Z,27.6
2016-04-06T06:58:59.488Z,27.5
2016-04-06T06:59:59.474Z,27.7
2016-04-06T07:00:59.477Z,28.08
2016-04-06T07:01:59.481Z,27.89
2016-04-06T07:02:59.499Z,27.31
2016-04-06T07:03:59.502Z,27.5
2016-04-06T07:04:59.504Z,27.8
2016-04-06T07:05:59.507Z,27.98
2016-04-06T07:06:59.510Z,27.4
2016-04-06T07:07:59.512Z,27.98
2016-04-06T07:08:59.530Z,27.7
2016-04-06T07:09:59.533Z,27.31
2016-04-06T07:10:59.536Z,27.89
2016-04-06T07:11:59.554Z,27.89
2016-04-06T07:12:59.557Z,27.6
2016-04-06T07:13:59.543Z,27.4
2016-04-06T07:14:59.562Z,27.31
2016-04-06T07:15:59.564Z,27.8
2016-04-06T07:16:59.567Z,27.5
2016-04-06T07:17:59.586Z,27.8
2016-04-06T07:18:59.573Z,27.4
2016-04-06T07:19:59.591Z,27.98
2016-04-06T07:20:59.595Z,27.8
2016-04-06T07:21:59.597Z,27.6
2016-04-06T07:22:59.600Z,27.8
2016-04-06T07:23:59.603Z,27.98
2016-04-06T07:24:59.621Z,27.8
2016-04-06T07:25:59.623Z,27.02
2016-04-06T07:26:59.625Z,27.8
2016-04-06T07:27:59.644Z,27.89
2016-04-06T07:28:59.631Z,27.31
2016-04-06T07:29:59.649Z,27.7
2016-04-06T07:30:59.683Z,27.7
2016-04-06T07:31:59.655Z,27.5
2016-04-06T07:32:59.673Z,27.4
2016-04-06T07:33:59.661Z,27.33
2016-04-06T07:34:59.679Z,26.84
2016-04-06T07:35:59.682Z,26.55
2016-04-06T07:36:59.684Z,26.26
2016-04-06T07:37:59.687Z,26.28
2016-04-06T07:38:59.690Z,26.08
2016-04-06T07:39:59.708Z,26.08
2016-04-06T07:40:59.710Z,25.89
2016-04-06T07:41:59.713Z,25.61
2016-04-06T07:42:59.747Z,25.81
2016-04-06T07:43:59.734Z,25.42
2016-04-06T07:44:59.752Z,25.32
2016-04-06T07:45:59.740Z,25.42
2016-04-06T07:46:59.743Z,25.32
2016-04-06T07:47:59.760Z,25.23
2016-04-06T07:48:59.763Z,24.95
2016-04-06T07:49:59.766Z,24.76
2016-04-06T07:50:59.784Z,24.46
2016-04-06T07:51:59.787Z,24.66
2016-04-06T07:52:59.789Z,24.66
2016-04-06T07:53:59.792Z,24.27
2016-04-06T07:54:59.795Z,24.46
2016-04-06T07:55:59.813Z,24.37
2016-04-06T07:56:59.816Z,24.27
2016-04-06T07:57:59.819Z,24.57
2016-04-06T07:58:59.822Z,24.37
2016-04-06T07:59:59.824Z,24.37
2016-04-06T08:00:59.827Z,24.28
2016-04-06T08:01:59.860Z,24.09
2016-04-06T08:02:59.864Z,24.09
2016-04-06T08:03:59.850Z,24.09
2016-04-06T08:04:59.868Z,23.99
2016-04-06T08:05:59.887Z,24.09
2016-04-06T08:06:59.874Z,23.99
2016-04-06T08:07:59.908Z,23.99
2016-04-06T08:08:59.896Z,24.18
2016-04-06T08:09:59.898Z,24.09
2016-04-06T08:10:59.901Z,24.18
2016-04-06T08:11:59.904Z,24.09
2016-04-06T08:12:59.906Z,24.09
2016-04-06T08:13:59.924Z,24.09
2016-04-06T08:14:59.943Z,24.28
2016-04-06T08:15:59.929Z,24.28
2016-04-06T08:16:59.932Z,24.09
2016-04-06T08:17:59.934Z,23.99
2016-04-06T08:18:59.953Z,24.18
2016-04-06T08:19:59.956Z,23.8
2016-04-06T08:20:59.973Z,23.7
2016-04-06T08:21:59.976Z,23.5
2016-04-06T08:22:59.995Z,23.5
2016-04-06T08:23:59.998Z,23.8
2016-04-06T08:25:00.017Z,23.7
2016-04-06T08:26:00.003Z,24.18
2016-04-06T08:27:00.006Z,23.8
2016-04-06T08:28:00.008Z,23.8
2016-04-06T08:29:00.028Z,24.09
2016-04-06T08:30:00.030Z,23.8
2016-04-06T08:31:00.033Z,24.09
2016-04-06T08:32:00.050Z,24.09
2016-04-06T08:33:00.038Z,24.38
2016-04-06T08:34:00.056Z,24.38
2016-04-06T08:35:00.075Z,23.6
2016-04-06T08:36:00.062Z,24.18
2016-04-06T08:37:00.096Z,24.09
2016-04-06T08:38:00.082Z,23.99
2016-04-06T08:39:00.085Z,23.99
2016-04-06T08:40:00.104Z,24.09
2016-04-06T08:41:00.107Z,24.18
2016-04-06T08:42:00.109Z,23.5
2016-04-06T08:43:00.127Z,23.33
2016-04-06T08:44:00.115Z,23.13
2016-04-06T08:45:00.118Z,23.22
2016-04-06T08:46:00.135Z,21.97
2016-04-06T08:47:00.154Z,19.68
2016-04-06T08:48:00.157Z,20.29
2016-04-06T08:49:00.159Z,21.03
2016-04-06T08:50:00.176Z,21.61
2016-04-06T08:51:00.165Z,22.09
2016-04-06T08:52:00.167Z,22.75
2016-04-06T08:53:00.170Z,23.13
2016-04-06T08:54:00.188Z,23.42
2016-04-06T08:55:00.190Z,23.22
2016-04-06T08:56:00.209Z,23.32
2016-04-06T08:57:00.212Z,23.6
2016-04-06T08:58:00.214Z,23.41
2016-04-06T08:59:00.233Z,23.6
2016-04-06T09:00:00.235Z,23.7
2016-04-06T09:01:00.239Z,23.7
2016-04-06T09:02:00.256Z,23.5
2016-04-06T09:03:00.244Z,23.32
2016-04-06T09:04:00.261Z,23.02
2016-04-06T09:05:00.264Z,23.5
2016-04-06T09:06:00.283Z,23.32
2016-04-06T09:07:00.286Z,23.7
2016-04-06T09:08:00.288Z,23.8
2016-04-06T09:09:00.291Z,23.41
2016-04-06T09:10:00.293Z,23.8
2016-04-06T09:11:00.312Z,22.83
2016-04-06T09:12:00.330Z,23.32
2016-04-06T09:13:00.332Z,23.02
2016-04-06T09:14:00.336Z,23.22
2016-04-06T09:15:00.338Z,23.22
2016-04-06T09:16:00.340Z,23.22
2016-04-06T09:17:00.359Z,23.32
2016-04-06T09:18:00.362Z,23.7
2016-04-06T09:19:00.380Z,23.7
2016-04-06T09:20:00.382Z,23.02
2016-04-06T09:21:00.386Z,23.41
2016-04-06T09:22:00.388Z,23.12
2016-04-06T09:23:00.390Z,23.41
2016-04-06T09:24:00.410Z,23.7
2016-04-06T09:25:00.412Z,23.6
2016-04-06T09:26:00.415Z,23.5
2016-04-06T09:27:00.433Z,23.6
2016-04-06T09:28:00.436Z,23.5
2016-04-06T09:29:00.439Z,23.8
2016-04-06T09:30:00.456Z,23.5
2016-04-06T09:31:00.459Z,23.6
2016-04-06T09:32:00.462Z,23.41
2016-04-06T09:33:00.481Z,23.32
2016-04-06T09:34:00.483Z,23.32
2016-04-06T09:35:00.502Z,23.32
2016-04-06T09:36:00.489Z,23.5
2016-04-06T09:37:00.507Z,23.12
2016-04-06T09:38:00.510Z,23.12
2016-04-06T09:39:00.513Z,23.12
2016-04-06T09:40:00.577Z,23.22
2016-04-06T09:41:00.533Z,23.41
2016-04-06T09:42:00.552Z,23.32
2016-04-06T09:43:00.543Z,23.6
2016-04-06T09:44:00.546Z,23.41
2016-04-06T09:45:00.636Z,23.32
2016-04-06T09:46:00.575Z,23.32
2016-04-06T09:47:00.578Z,23.41
2016-04-06T09:48:00.581Z,23.32
2016-04-06T09:49:00.583Z,23.41
2016-04-06T09:50:00.619Z,23.22
2016-04-06T09:51:00.605Z,23.32
2016-04-06T09:52:00.608Z,23.7
2016-04-06T09:53:00.626Z,23.7
2016-04-06T09:54:00.629Z,23.9
2016-04-06T09:55:00.632Z,23.7
2016-04-06T09:56:00.649Z,23.7
2016-04-06T09:57:00.652Z,23.32
2016-04-06T09:58:00.655Z,23.32
2016-04-06T09:59:00.673Z,23.41
2016-04-06T10:00:00.676Z,23.12
2016-04-06T10:01:00.678Z,23.6
2016-04-06T10:02:00.682Z,23.32
2016-04-06T10:03:00.715Z,23.22
2016-04-06T10:04:00.703Z,23.41
2016-04-06T10:05:00.721Z,23.32
2016-04-06T10:06:00.723Z,23.41
2016-04-06T10:07:00.726Z,23.32
2016-04-06T10:08:00.729Z,23.41
2016-04-06T10:09:00.747Z,23.6
2016-04-06T10:10:00.734Z,23.32
2016-04-06T10:11:00.800Z,23.5
2016-04-06T10:12:00.755Z,23.7
2016-04-06T10:13:00.758Z,23.22
2016-04-06T10:14:00.776Z,23.6
2016-04-06T10:15:00.794Z,23.6
2016-04-06T10:16:00.781Z,23.7
2016-04-06T10:17:00.800Z,23.6
2016-04-06T10:18:00.803Z,23.32
2016-04-06T10:19:00.821Z,23.9
2016-04-06T10:20:00.808Z,23.7
2016-04-06T10:21:00.842Z,23.8
2016-04-06T10:22:00.829Z,23.8
2016-04-06T10:23:00.832Z,23.41
2016-04-06T10:24:00.850Z,23.32
2016-04-06T10:25:00.852Z,23.41
2016-04-06T10:26:00.871Z,23.32
2016-04-06T10:27:00.858Z,23.6
2016-04-06T10:28:00.877Z,23.6
2016-04-06T10:29:00.879Z,24.38
2016-04-06T10:30:00.881Z,23.8
2016-04-06T10:31:00.901Z,23.6
2016-04-06T10:32:00.903Z,23.41
2016-04-06T10:33:00.906Z,23.8
2016-04-06T10:34:00.908Z,23.6
2016-04-06T10:35:00.927Z,23.6
2016-04-06T10:36:00.929Z,23.8
2016-04-06T10:37:00.931Z,23.7
2016-04-06T10:38:00.950Z,23.8
2016-04-06T10:39:00.953Z,24.18
2016-04-06T10:40:01.003Z,23.98
2016-04-06T10:41:00.973Z,24.18
2016-04-06T10:42:00.976Z,24.08
2016-04-06T10:43:00.979Z,23.88
2016-04-06T10:44:00.997Z,23.98
2016-04-06T10:45:01.000Z,23.88
2016-04-06T10:46:01.019Z,23.98
2016-04-06T10:47:01.022Z,23.98
2016-04-06T10:48:01.009Z,23.98
2016-04-06T10:49:01.027Z,24.27
2016-04-06T10:50:01.029Z,24.27
2016-04-06T10:51:01.032Z,23.88
2016-04-06T10:52:01.050Z,23.88
2016-04-06T10:53:01.053Z,24.08
2016-04-06T10:54:01.055Z,24.56
2016-04-06T10:55:01.058Z,24.27
2016-04-06T10:56:01.077Z,23.79
2016-04-06T10:57:01.845Z,24.08
2016-04-06T10:58:01.098Z,24.08
2016-04-06T10:59:01.101Z,24.37
2016-04-06T11:00:01.103Z,24.27
2016-04-06T11:01:01.106Z,24.27
2016-04-06T11:02:01.108Z,24.17
2016-04-06T11:03:01.127Z,24.46
2016-04-06T11:04:01.129Z,23.88
2016-04-06T11:05:01.162Z,24.37
2016-04-06T11:06:01.275Z,23.98
2016-04-06T11:07:01.154Z,24.17
2016-04-06T11:08:01.156Z,23.98
2016-04-06T11:09:01.158Z,24.08
2016-04-06T11:10:01.193Z,24.08
2016-04-06T11:11:01.179Z,24.17
2016-04-06T11:12:01.181Z,23.79
2016-04-06T11:13:01.185Z,23.79
2016-04-06T11:14:01.204Z,24.17
2016-04-06T11:15:01.206Z,24.08
2016-04-06T11:16:01.208Z,23.98
2016-04-06T11:17:01.227Z,24.09
2016-04-06T11:18:01.230Z,23.98
2016-04-06T11:19:01.232Z,23.69
2016-04-06T11:20:01.250Z,24.09
2016-04-06T11:21:01.300Z,23.98
2016-04-06T11:22:01.256Z,23.79
2016-04-06T11:23:01.258Z,23.21
2016-04-06T11:24:01.261Z,23.7
2016-04-06T11:25:01.280Z,23.69
2016-04-06T11:26:01.282Z,23.69
2016-04-06T11:27:01.285Z,23.69
2016-04-06T11:28:01.288Z,23.69
2016-04-06T11:29:01.306Z,23.6
2016-04-06T11:30:01.309Z,23.69
2016-04-06T11:31:01.311Z,23.32
2016-04-06T11:32:01.329Z,23.4
2016-04-06T11:33:01.332Z,23.79
2016-04-06T11:34:01.351Z,23.4
2016-04-06T11:35:01.385Z,23.88
2016-04-06T11:36:01.559Z,24.27
2016-04-06T11:37:01.359Z,24.08
2016-04-06T11:38:01.377Z,24.17
2016-04-06T11:39:01.379Z,23.98
2016-04-06T11:40:01.382Z,23.69
2016-04-06T11:41:01.384Z,23.41
2016-04-06T11:42:01.388Z,23.59
2016-04-06T11:43:01.406Z,23.69
2016-04-06T11:44:01.409Z,23.79
2016-04-06T11:45:01.411Z,23.79
2016-04-06T11:46:01.430Z,24.17
2016-04-06T11:47:01.433Z,24.17
2016-04-06T11:48:01.436Z,24.17
2016-04-06T11:49:01.438Z,24.17
2016-04-06T11:50:01.456Z,24.17
2016-04-06T11:51:01.491Z,24.37
2016-04-06T11:52:01.461Z,24.08
2016-04-06T11:53:01.480Z,24.08
2016-04-06T11:54:01.482Z,23.79
2016-04-06T11:55:01.501Z,23.4
2016-04-06T11:56:01.488Z,24.27
2016-04-06T11:57:01.491Z,23.98
2016-04-06T11:58:01.510Z,24.17
2016-04-06T11:59:01.512Z,23.69
2016-04-06T12:00:01.530Z,23.88
2016-04-06T12:01:01.532Z,23.88
2016-04-06T12:02:01.535Z,23.4
2016-04-06T12:03:01.554Z,23.79
2016-04-06T12:04:01.557Z,24.37
2016-04-06T12:05:01.559Z,23.69
2016-04-06T12:06:01.562Z,23.88
2016-04-06T12:07:01.579Z,23.59
2016-04-06T12:08:01.575Z,23.3
2016-04-06T12:09:01.577Z,23.69
2016-04-06T12:10:01.594Z,23.59
2016-04-06T12:11:01.597Z,23.59
2016-04-06T12:12:01.616Z,23.59
2016-04-06T12:13:01.619Z,23.59
2016-04-06T12:14:01.637Z,23.4
2016-04-06T12:15:01.624Z,23.88
2016-04-06T12:16:01.643Z,23.5
2016-04-06T12:17:01.645Z,23.69
2016-04-06T12:18:01.650Z,23.69
2016-04-06T12:19:01.653Z,23.79
2016-04-06T12:20:01.656Z,23.59
2016-04-06T12:21:01.673Z,23.69
2016-04-06T12:22:01.676Z,23.69
2016-04-06T12:23:01.694Z,23.69
2016-04-06T12:24:01.728Z,23.59
2016-04-06T12:25:01.700Z,23.69
2016-04-06T12:26:01.703Z,24.17
2016-04-06T12:27:01.705Z,23.69
2016-04-06T12:28:01.723Z,24.08
2016-04-06T12:29:01.741Z,24.08
2016-04-06T12:30:01.728Z,24.17
2016-04-06T12:31:01.747Z,24.17
2016-04-06T12:32:01.750Z,24.17
2016-04-06T12:33:01.752Z,23.98
2016-04-06T12:34:01.772Z,23.88
2016-04-06T12:35:01.774Z,23.69
2016-04-06T12:36:01.776Z,23.59
2016-04-06T12:37:01.794Z,23.7
2016-04-06T12:38:01.797Z,23.69
2016-04-06T12:39:01.799Z,23.69
2016-04-06T12:40:01.803Z,23.59
2016-04-06T12:41:01.821Z,23.59
2016-04-06T12:42:01.824Z,23.4
2016-04-06T12:43:01.826Z,23.32
2016-04-06T12:44:01.829Z,23.6
2016-04-06T12:45:01.832Z,23.5
2016-04-06T12:46:01.851Z,23.22
2016-04-06T12:47:01.868Z,23.41
2016-04-06T12:48:01.870Z,23.8
2016-04-06T12:49:01.874Z,23.5
2016-04-06T12:50:01.876Z,23.8
2016-04-06T12:51:01.878Z,23.6
2016-04-06T12:52:01.897Z,22.92
2016-04-06T12:53:01.901Z,23.32
2016-04-06T12:54:01.918Z,23.8
2016-04-06T12:55:01.905Z,23.6
2016-04-06T12:56:01.924Z,23.5
2016-04-06T12:57:01.925Z,23.32